sensor_id;sensor_type;location;lat;lon;timestamp;P1;P2;P0
57451;PMS7003;54295;51.224;-0.164;2022-07-18T00:01:08;10;10;
57451;PMS7003;54295;51.224;-0.164;2022-07-18T00:03:35;9;9;
57451;PMS7003;54295;51.224;-0.164;2022-07-18T00:06:02;8;7;
57451;PMS7003;54295;51.224;-0.164;2022-07-18T00:08:29;10;9;
57451;PMS7003;54295;51.224;-0.164;2022-07-18T00:10:56;9;8;
57451;PMS7003;54295;51.224;-0.164;2022-07-18T00:13:24;9;8;
57451;PMS7003;54295;51.224;-0.164;2022-07-18T00:15:51;8;8;
57451;PMS7003;54295;51.224;-0.164;2022-07-18T00:18:18;12;10;
57451;PMS7003;54295;51.224;-0.164;2022-07-18T00:20:45;9;9;
57451;PMS7003;54295;51.224;-0.164;2022-07-18T00:23:12;10;9;
57451;PMS7003;54295;51.224;-0.164;2022-07-18T00:25:39;10;10;
57451;PMS7003;54295;51.224;-0.164;2022-07-18T00:28:06;10;10;
57451;PMS7003;54295;51.224;-0.164;2022-07-18T00:30:33;8;8;
57451;PMS7003;54295;51.224;-0.164;2022-07-18T00:33:00;11;10;
57451;PMS7003;54295;51.224;-0.164;2022-07-18T00:35:27;10;9;
57451;PMS7003;54295;51.224;-0.164;2022-07-18T00:37:54;9;7;
57451;PMS7003;54295;51.224;-0.164;2022-07-18T00:40:21;10;10;
57451;PMS7003;54295;51.224;-0.164;2022-07-18T00:42:48;10;9;
57451;PMS7003;54295;51.224;-0.164;2022-07-18T00:45:16;8;8;
57451;PMS7003;54295;51.224;-0.164;2022-07-18T00:47:43;11;11;
57451;PMS7003;54295;51.224;-0.164;2022-07-18T00:50:10;10;9;
57451;PMS7003;54295;51.224;-0.164;2022-07-18T00:52:38;9;9;
57451;PMS7003;54295;51.224;-0.164;2022-07-18T00:55:06;9;9;
57451;PMS7003;54295;51.224;-0.164;2022-07-18T00:57:34;11;11;
57451;PMS7003;54295;51.224;-0.164;2022-07-18T01:00:03;8;7;
57451;PMS7003;54295;51.224;-0.164;2022-07-18T01:02:31;8;7;
57451;PMS7003;54295;51.224;-0.164;2022-07-18T01:04:58;12;12;
57451;PMS7003;54295;51.224;-0.164;2022-07-18T01:07:35;9;8;
57451;PMS7003;54295;51.224;-0.164;2022-07-18T01:10:06;10;10;
57451;PMS7003;54295;51.224;-0.164;2022-07-18T01:12:55;10;9;
57451;PMS7003;54295;51.224;-0.164;2022-07-18T01:15:21;10;10;
57451;PMS7003;54295;51.224;-0.164;2022-07-18T01:17:50;6;6;
57451;PMS7003;54295;51.224;-0.164;2022-07-18T01:20:18;8;7;
57451;PMS7003;54295;51.224;-0.164;2022-07-18T01:22:45;9;8;
57451;PMS7003;54295;51.224;-0.164;2022-07-18T01:25:12;11;10;
57451;PMS7003;54295;51.224;-0.164;2022-07-18T01:27:40;11;9;
57451;PMS7003;54295;51.224;-0.164;2022-07-18T01:30:07;10;9;
57451;PMS7003;54295;51.224;-0.164;2022-07-18T01:32:35;11;8;
57451;PMS7003;54295;51.224;-0.164;2022-07-18T01:35:02;10;9;
57451;PMS7003;54295;51.224;-0.164;2022-07-18T01:37:31;10;9;
57451;PMS7003;54295;51.224;-0.164;2022-07-18T01:39:58;11;9;
57451;PMS7003;54295;51.224;-0.164;2022-07-18T01:42:25;9;9;
57451;PMS7003;54295;51.224;-0.164;2022-07-18T01:44:52;11;10;
57451;PMS7003;54295;51.224;-0.164;2022-07-18T01:47:20;12;11;
57451;PMS7003;54295;51.224;-0.164;2022-07-18T01:49:47;13;11;
57451;PMS7003;54295;51.224;-0.164;2022-07-18T01:52:14;10;10;
57451;PMS7003;54295;51.224;-0.164;2022-07-18T01:54:41;11;9;
57451;PMS7003;54295;51.224;-0.164;2022-07-18T01:57:08;9;9;
57451;PMS7003;54295;51.224;-0.164;2022-07-18T01:59:35;10;9;
57451;PMS7003;54295;51.224;-0.164;2022-07-18T02:02:03;11;10;
57451;PMS7003;54295;51.224;-0.164;2022-07-18T02:04:31;12;9;
57451;PMS7003;54295;51.224;-0.164;2022-07-18T02:06:58;9;9;
57451;PMS7003;54295;51.224;-0.164;2022-07-18T02:09:25;11;9;
57451;PMS7003;54295;51.224;-0.164;2022-07-18T02:11:53;11;10;
57451;PMS7003;54295;51.224;-0.164;2022-07-18T02:14:20;10;9;
57451;PMS7003;54295;51.224;-0.164;2022-07-18T02:16:47;11;9;
57451;PMS7003;54295;51.224;-0.164;2022-07-18T02:19:14;8;8;
57451;PMS7003;54295;51.224;-0.164;2022-07-18T02:21:41;8;8;
57451;PMS7003;54295;51.224;-0.164;2022-07-18T02:24:12;14;13;
57451;PMS7003;54295;51.224;-0.164;2022-07-18T02:26:39;11;10;
57451;PMS7003;54295;51.224;-0.164;2022-07-18T02:29:06;8;8;
57451;PMS7003;54295;51.224;-0.164;2022-07-18T02:31:34;9;9;
57451;PMS7003;54295;51.224;-0.164;2022-07-18T02:34:01;10;9;
57451;PMS7003;54295;51.224;-0.164;2022-07-18T02:36:28;11;9;
57451;PMS7003;54295;51.224;-0.164;2022-07-18T02:38:55;12;10;
57451;PMS7003;54295;51.224;-0.164;2022-07-18T02:41:23;8;8;
57451;PMS7003;54295;51.224;-0.164;2022-07-18T02:43:55;10;9;
57451;PMS7003;54295;51.224;-0.164;2022-07-18T02:46:22;11;11;
57451;PMS7003;54295;51.224;-0.164;2022-07-18T02:48:50;11;10;
57451;PMS7003;54295;51.224;-0.164;2022-07-18T02:51:18;8;8;
57451;PMS7003;54295;51.224;-0.164;2022-07-18T02:53:45;11;10;
57451;PMS7003;54295;51.224;-0.164;2022-07-18T02:56:13;7;7;
57451;PMS7003;54295;51.224;-0.164;2022-07-18T02:58:40;10;9;
57451;PMS7003;54295;51.224;-0.164;2022-07-18T03:01:07;9;8;
57451;PMS7003;54295;51.224;-0.164;2022-07-18T03:03:34;9;8;
57451;PMS7003;54295;51.224;-0.164;2022-07-18T03:06:01;11;11;
57451;PMS7003;54295;51.224;-0.164;2022-07-18T03:08:28;12;12;
57451;PMS7003;54295;51.224;-0.164;2022-07-18T03:10:55;8;8;
57451;PMS7003;54295;51.224;-0.164;2022-07-18T03:13:23;11;11;
57451;PMS7003;54295;51.224;-0.164;2022-07-18T03:15:50;10;10;
57451;PMS7003;54295;51.224;-0.164;2022-07-18T03:18:17;11;10;
57451;PMS7003;54295;51.224;-0.164;2022-07-18T03:20:44;9;8;
57451;PMS7003;54295;51.224;-0.164;2022-07-18T03:23:11;11;10;
57451;PMS7003;54295;51.224;-0.164;2022-07-18T03:25:38;8;8;
57451;PMS7003;54295;51.224;-0.164;2022-07-18T03:28:05;13;12;
57451;PMS7003;54295;51.224;-0.164;2022-07-18T03:30:33;10;10;
57451;PMS7003;54295;51.224;-0.164;2022-07-18T03:33:00;10;9;
57451;PMS7003;54295;51.224;-0.164;2022-07-18T03:35:27;11;9;
57451;PMS7003;54295;51.224;-0.164;2022-07-18T03:37:54;9;9;
57451;PMS7003;54295;51.224;-0.164;2022-07-18T03:40:21;10;9;
57451;PMS7003;54295;51.224;-0.164;2022-07-18T03:42:48;12;9;
57451;PMS7003;54295;51.224;-0.164;2022-07-18T03:45:15;11;9;
57451;PMS7003;54295;51.224;-0.164;2022-07-18T03:47:42;11;10;
57451;PMS7003;54295;51.224;-0.164;2022-07-18T03:50:09;11;11;
57451;PMS7003;54295;51.224;-0.164;2022-07-18T03:52:36;9;9;
57451;PMS7003;54295;51.224;-0.164;2022-07-18T03:55:04;8;8;
57451;PMS7003;54295;51.224;-0.164;2022-07-18T03:57:32;8;8;
57451;PMS7003;54295;51.224;-0.164;2022-07-18T03:59:58;9;8;
57451;PMS7003;54295;51.224;-0.164;2022-07-18T04:02:26;9;9;
57451;PMS7003;54295;51.224;-0.164;2022-07-18T04:04:54;9;7;
57451;PMS7003;54295;51.224;-0.164;2022-07-18T04:07:21;10;10;
57451;PMS7003;54295;51.224;-0.164;2022-07-18T04:09:48;8;7;
57451;PMS7003;54295;51.224;-0.164;2022-07-18T04:12:19;10;9;
57451;PMS7003;54295;51.224;-0.164;2022-07-18T04:14:46;8;8;
57451;PMS7003;54295;51.224;-0.164;2022-07-18T04:18:46;9;8;
57451;PMS7003;54295;51.224;-0.164;2022-07-18T04:21:14;9;7;
57451;PMS7003;54295;51.224;-0.164;2022-07-18T04:23:42;9;9;
57451;PMS7003;54295;51.224;-0.164;2022-07-18T04:26:09;9;7;
57451;PMS7003;54295;51.224;-0.164;2022-07-18T04:28:37;10;9;
57451;PMS7003;54295;51.224;-0.164;2022-07-18T04:31:04;11;10;
57451;PMS7003;54295;51.224;-0.164;2022-07-18T04:33:32;8;8;
57451;PMS7003;54295;51.224;-0.164;2022-07-18T04:35:59;9;9;
57451;PMS7003;54295;51.224;-0.164;2022-07-18T04:38:40;9;8;
57451;PMS7003;54295;51.224;-0.164;2022-07-18T04:41:07;7;6;
57451;PMS7003;54295;51.224;-0.164;2022-07-18T04:43:35;8;7;
57451;PMS7003;54295;51.224;-0.164;2022-07-18T04:46:05;8;8;
57451;PMS7003;54295;51.224;-0.164;2022-07-18T04:48:40;9;8;
57451;PMS7003;54295;51.224;-0.164;2022-07-18T04:51:12;10;10;
57451;PMS7003;54295;51.224;-0.164;2022-07-18T04:53:39;8;8;
57451;PMS7003;54295;51.224;-0.164;2022-07-18T04:56:06;8;8;
57451;PMS7003;54295;51.224;-0.164;2022-07-18T04:58:34;10;10;
57451;PMS7003;54295;51.224;-0.164;2022-07-18T05:01:01;8;7;
57451;PMS7003;54295;51.224;-0.164;2022-07-18T05:03:28;8;8;
57451;PMS7003;54295;51.224;-0.164;2022-07-18T05:05:55;9;9;
57451;PMS7003;54295;51.224;-0.164;2022-07-18T05:08:22;8;8;
57451;PMS7003;54295;51.224;-0.164;2022-07-18T05:10:49;7;6;
57451;PMS7003;54295;51.224;-0.164;2022-07-18T05:13:16;10;7;
57451;PMS7003;54295;51.224;-0.164;2022-07-18T05:15:43;8;7;
57451;PMS7003;54295;51.224;-0.164;2022-07-18T05:18:10;10;8;
57451;PMS7003;54295;51.224;-0.164;2022-07-18T05:20:38;9;8;
57451;PMS7003;54295;51.224;-0.164;2022-07-18T05:23:05;9;9;
57451;PMS7003;54295;51.224;-0.164;2022-07-18T05:25:47;8;8;
57451;PMS7003;54295;51.224;-0.164;2022-07-18T05:28:14;9;9;
57451;PMS7003;54295;51.224;-0.164;2022-07-18T05:30:41;9;9;
57451;PMS7003;54295;51.224;-0.164;2022-07-18T05:33:08;8;7;
57451;PMS7003;54295;51.224;-0.164;2022-07-18T05:35:35;9;9;
57451;PMS7003;54295;51.224;-0.164;2022-07-18T05:38:02;10;9;
57451;PMS7003;54295;51.224;-0.164;2022-07-18T05:40:29;7;7;
57451;PMS7003;54295;51.224;-0.164;2022-07-18T05:42:56;8;8;
57451;PMS7003;54295;51.224;-0.164;2022-07-18T05:45:23;6;6;
57451;PMS7003;54295;51.224;-0.164;2022-07-18T05:47:51;10;9;
57451;PMS7003;54295;51.224;-0.164;2022-07-18T05:50:19;7;7;
57451;PMS7003;54295;51.224;-0.164;2022-07-18T05:52:46;10;10;
57451;PMS7003;54295;51.224;-0.164;2022-07-18T05:55:13;6;6;
57451;PMS7003;54295;51.224;-0.164;2022-07-18T05:57:40;10;7;
57451;PMS7003;54295;51.224;-0.164;2022-07-18T06:00:08;9;8;
57451;PMS7003;54295;51.224;-0.164;2022-07-18T06:02:37;8;7;
57451;PMS7003;54295;51.224;-0.164;2022-07-18T06:05:05;8;7;
57451;PMS7003;54295;51.224;-0.164;2022-07-18T06:07:34;7;6;
57451;PMS7003;54295;51.224;-0.164;2022-07-18T06:10:02;8;8;
57451;PMS7003;54295;51.224;-0.164;2022-07-18T06:12:30;8;7;
57451;PMS7003;54295;51.224;-0.164;2022-07-18T06:14:58;7;7;
57451;PMS7003;54295;51.224;-0.164;2022-07-18T06:17:26;8;8;
57451;PMS7003;54295;51.224;-0.164;2022-07-18T06:19:54;8;8;
57451;PMS7003;54295;51.224;-0.164;2022-07-18T06:22:22;7;7;
57451;PMS7003;54295;51.224;-0.164;2022-07-18T06:24:54;6;6;
57451;PMS7003;54295;51.224;-0.164;2022-07-18T06:27:28;9;8;
57451;PMS7003;54295;51.224;-0.164;2022-07-18T06:30:01;6;6;
57451;PMS7003;54295;51.224;-0.164;2022-07-18T06:32:40;9;9;
57451;PMS7003;54295;51.224;-0.164;2022-07-18T06:35:08;8;8;
57451;PMS7003;54295;51.224;-0.164;2022-07-18T06:37:36;7;7;
57451;PMS7003;54295;51.224;-0.164;2022-07-18T06:40:03;7;6;
57451;PMS7003;54295;51.224;-0.164;2022-07-18T06:42:32;7;7;
57451;PMS7003;54295;51.224;-0.164;2022-07-18T06:45:00;6;6;
57451;PMS7003;54295;51.224;-0.164;2022-07-18T06:47:28;8;7;
57451;PMS7003;54295;51.224;-0.164;2022-07-18T06:49:55;8;8;
57451;PMS7003;54295;51.224;-0.164;2022-07-18T06:52:22;7;5;
57451;PMS7003;54295;51.224;-0.164;2022-07-18T06:54:49;5;5;
57451;PMS7003;54295;51.224;-0.164;2022-07-18T06:57:16;10;7;
57451;PMS7003;54295;51.224;-0.164;2022-07-18T06:59:43;8;7;
57451;PMS7003;54295;51.224;-0.164;2022-07-18T07:02:10;6;6;
57451;PMS7003;54295;51.224;-0.164;2022-07-18T07:04:37;6;6;
57451;PMS7003;54295;51.224;-0.164;2022-07-18T07:07:04;8;8;
57451;PMS7003;54295;51.224;-0.164;2022-07-18T07:09:31;5;4;
57451;PMS7003;54295;51.224;-0.164;2022-07-18T07:11:58;5;5;
57451;PMS7003;54295;51.224;-0.164;2022-07-18T07:14:29;6;6;
57451;PMS7003;54295;51.224;-0.164;2022-07-18T07:16:56;6;4;
57451;PMS7003;54295;51.224;-0.164;2022-07-18T07:19:27;7;6;
57451;PMS7003;54295;51.224;-0.164;2022-07-18T07:22:18;7;6;
57451;PMS7003;54295;51.224;-0.164;2022-07-18T07:24:44;6;5;
57451;PMS7003;54295;51.224;-0.164;2022-07-18T07:27:11;6;6;
57451;PMS7003;54295;51.224;-0.164;2022-07-18T07:29:38;8;6;
57451;PMS7003;54295;51.224;-0.164;2022-07-18T07:32:05;6;6;
57451;PMS7003;54295;51.224;-0.164;2022-07-18T07:34:32;6;6;
57451;PMS7003;54295;51.224;-0.164;2022-07-18T07:36:59;6;6;
57451;PMS7003;54295;51.224;-0.164;2022-07-18T07:39:26;10;9;
57451;PMS7003;54295;51.224;-0.164;2022-07-18T07:41:53;5;5;
57451;PMS7003;54295;51.224;-0.164;2022-07-18T07:44:20;9;9;
57451;PMS7003;54295;51.224;-0.164;2022-07-18T07:46:47;5;5;
57451;PMS7003;54295;51.224;-0.164;2022-07-18T07:49:14;7;6;
57451;PMS7003;54295;51.224;-0.164;2022-07-18T07:51:41;7;7;
57451;PMS7003;54295;51.224;-0.164;2022-07-18T07:54:08;8;7;
57451;PMS7003;54295;51.224;-0.164;2022-07-18T07:56:34;9;7;
57451;PMS7003;54295;51.224;-0.164;2022-07-18T07:59:01;6;6;
57451;PMS7003;54295;51.224;-0.164;2022-07-18T08:01:28;6;6;
57451;PMS7003;54295;51.224;-0.164;2022-07-18T08:03:55;8;7;
57451;PMS7003;54295;51.224;-0.164;2022-07-18T08:06:22;6;6;
57451;PMS7003;54295;51.224;-0.164;2022-07-18T08:08:50;6;6;
57451;PMS7003;54295;51.224;-0.164;2022-07-18T08:11:20;7;7;
57451;PMS7003;54295;51.224;-0.164;2022-07-18T08:13:59;6;6;
57451;PMS7003;54295;51.224;-0.164;2022-07-18T08:16:25;7;6;
57451;PMS7003;54295;51.224;-0.164;2022-07-18T08:18:52;6;6;
57451;PMS7003;54295;51.224;-0.164;2022-07-18T08:21:19;5;5;
57451;PMS7003;54295;51.224;-0.164;2022-07-18T08:23:46;6;6;
57451;PMS7003;54295;51.224;-0.164;2022-07-18T08:26:13;5;5;
57451;PMS7003;54295;51.224;-0.164;2022-07-18T08:28:41;8;6;
57451;PMS7003;54295;51.224;-0.164;2022-07-18T08:31:13;5;4;
57451;PMS7003;54295;51.224;-0.164;2022-07-18T08:33:40;8;8;
57451;PMS7003;54295;51.224;-0.164;2022-07-18T08:36:07;7;6;
57451;PMS7003;54295;51.224;-0.164;2022-07-18T08:38:34;5;5;
57451;PMS7003;54295;51.224;-0.164;2022-07-18T08:41:03;4;4;
57451;PMS7003;54295;51.224;-0.164;2022-07-18T08:43:30;6;6;
57451;PMS7003;54295;51.224;-0.164;2022-07-18T08:46:00;6;6;
57451;PMS7003;54295;51.224;-0.164;2022-07-18T08:48:31;7;6;
57451;PMS7003;54295;51.224;-0.164;2022-07-18T08:50:59;8;8;
57451;PMS7003;54295;51.224;-0.164;2022-07-18T08:53:27;7;7;
57451;PMS7003;54295;51.224;-0.164;2022-07-18T08:55:55;6;6;
57451;PMS7003;54295;51.224;-0.164;2022-07-18T08:58:22;10;8;
57451;PMS7003;54295;51.224;-0.164;2022-07-18T09:00:51;7;7;
57451;PMS7003;54295;51.224;-0.164;2022-07-18T09:03:18;6;6;
57451;PMS7003;54295;51.224;-0.164;2022-07-18T09:05:45;5;5;
57451;PMS7003;54295;51.224;-0.164;2022-07-18T09:08:12;7;6;
57451;PMS7003;54295;51.224;-0.164;2022-07-18T09:10:41;7;6;
57451;PMS7003;54295;51.224;-0.164;2022-07-18T09:13:18;9;7;
57451;PMS7003;54295;51.224;-0.164;2022-07-18T09:16:04;6;6;
57451;PMS7003;54295;51.224;-0.164;2022-07-18T09:18:35;8;7;
57451;PMS7003;54295;51.224;-0.164;2022-07-18T09:21:07;8;8;
57451;PMS7003;54295;51.224;-0.164;2022-07-18T09:23:36;6;6;
57451;PMS7003;54295;51.224;-0.164;2022-07-18T09:26:05;8;8;
57451;PMS7003;54295;51.224;-0.164;2022-07-18T09:28:49;7;6;
57451;PMS7003;54295;51.224;-0.164;2022-07-18T09:31:18;7;7;
57451;PMS7003;54295;51.224;-0.164;2022-07-18T09:33:51;6;6;
57451;PMS7003;54295;51.224;-0.164;2022-07-18T09:36:53;6;6;
57451;PMS7003;54295;51.224;-0.164;2022-07-18T09:39:21;7;7;
57451;PMS7003;54295;51.224;-0.164;2022-07-18T09:41:48;6;5;
57451;PMS7003;54295;51.224;-0.164;2022-07-18T09:44:16;8;8;
57451;PMS7003;54295;51.224;-0.164;2022-07-18T09:47:03;6;6;
57451;PMS7003;54295;51.224;-0.164;2022-07-18T09:49:30;5;5;
57451;PMS7003;54295;51.224;-0.164;2022-07-18T09:52:02;4;4;
57451;PMS7003;54295;51.224;-0.164;2022-07-18T09:54:38;7;7;
57451;PMS7003;54295;51.224;-0.164;2022-07-18T09:57:07;5;5;
57451;PMS7003;54295;51.224;-0.164;2022-07-18T09:59:36;6;6;
57451;PMS7003;54295;51.224;-0.164;2022-07-18T10:02:03;5;5;
57451;PMS7003;54295;51.224;-0.164;2022-07-18T10:04:31;7;7;
57451;PMS7003;54295;51.224;-0.164;2022-07-18T10:07:23;5;5;
57451;PMS7003;54295;51.224;-0.164;2022-07-18T10:09:51;6;6;
57451;PMS7003;54295;51.224;-0.164;2022-07-18T10:12:18;6;6;
57451;PMS7003;54295;51.224;-0.164;2022-07-18T10:14:45;5;5;
57451;PMS7003;54295;51.224;-0.164;2022-07-18T10:17:13;5;5;
57451;PMS7003;54295;51.224;-0.164;2022-07-18T10:19:40;5;5;
57451;PMS7003;54295;51.224;-0.164;2022-07-18T10:22:08;4;4;
57451;PMS7003;54295;51.224;-0.164;2022-07-18T10:24:37;6;6;
57451;PMS7003;54295;51.224;-0.164;2022-07-18T10:27:14;6;6;
57451;PMS7003;54295;51.224;-0.164;2022-07-18T10:30:15;5;5;
57451;PMS7003;54295;51.224;-0.164;2022-07-18T10:32:43;6;6;
57451;PMS7003;54295;51.224;-0.164;2022-07-18T10:35:10;7;7;
57451;PMS7003;54295;51.224;-0.164;2022-07-18T10:37:42;6;6;
57451;PMS7003;54295;51.224;-0.164;2022-07-18T10:40:26;5;5;
57451;PMS7003;54295;51.224;-0.164;2022-07-18T10:43:59;5;5;
57451;PMS7003;54295;51.224;-0.164;2022-07-18T10:46:44;6;6;
57451;PMS7003;54295;51.224;-0.164;2022-07-18T10:49:53;5;5;
57451;PMS7003;54295;51.224;-0.164;2022-07-18T10:52:59;7;6;
57451;PMS7003;54295;51.224;-0.164;2022-07-18T10:55:27;7;7;
57451;PMS7003;54295;51.224;-0.164;2022-07-18T10:58:28;5;5;
57451;PMS7003;54295;51.224;-0.164;2022-07-18T11:01:05;5;5;
57451;PMS7003;54295;51.224;-0.164;2022-07-18T11:03:42;6;6;
57451;PMS7003;54295;51.224;-0.164;2022-07-18T11:06:09;7;5;
57451;PMS7003;54295;51.224;-0.164;2022-07-18T11:08:37;8;7;
57451;PMS7003;54295;51.224;-0.164;2022-07-18T11:11:06;7;7;
57451;PMS7003;54295;51.224;-0.164;2022-07-18T11:13:39;5;5;
57451;PMS7003;54295;51.224;-0.164;2022-07-18T11:16:08;3;3;
57451;PMS7003;54295;51.224;-0.164;2022-07-18T11:19:41;7;6;
57451;PMS7003;54295;51.224;-0.164;2022-07-18T11:22:08;6;6;
57451;PMS7003;54295;51.224;-0.164;2022-07-18T11:24:44;4;3;
57451;PMS7003;54295;51.224;-0.164;2022-07-18T11:27:15;6;6;
57451;PMS7003;54295;51.224;-0.164;2022-07-18T11:29:43;4;4;
57451;PMS7003;54295;51.224;-0.164;2022-07-18T11:32:11;5;5;
57451;PMS7003;54295;51.224;-0.164;2022-07-18T11:34:39;5;5;
57451;PMS7003;54295;51.224;-0.164;2022-07-18T11:37:16;7;6;
57451;PMS7003;54295;51.224;-0.164;2022-07-18T11:39:43;7;6;
57451;PMS7003;54295;51.224;-0.164;2022-07-18T11:42:10;5;5;
57451;PMS7003;54295;51.224;-0.164;2022-07-18T11:44:37;5;5;
57451;PMS7003;54295;51.224;-0.164;2022-07-18T11:47:17;4;4;
57451;PMS7003;54295;51.224;-0.164;2022-07-18T11:49:53;6;6;
57451;PMS7003;54295;51.224;-0.164;2022-07-18T11:52:21;5;5;
57451;PMS7003;54295;51.224;-0.164;2022-07-18T11:54:48;6;5;
57451;PMS7003;54295;51.224;-0.164;2022-07-18T11:57:25;5;5;
57451;PMS7003;54295;51.224;-0.164;2022-07-18T11:59:52;6;6;
57451;PMS7003;54295;51.224;-0.164;2022-07-18T12:03:10;5;5;
57451;PMS7003;54295;51.224;-0.164;2022-07-18T12:05:41;6;5;
57451;PMS7003;54295;51.224;-0.164;2022-07-18T12:08:27;6;5;
57451;PMS7003;54295;51.224;-0.164;2022-07-18T12:11:02;4;4;
57451;PMS7003;54295;51.224;-0.164;2022-07-18T12:13:40;8;7;
57451;PMS7003;54295;51.224;-0.164;2022-07-18T12:16:08;5;5;
57451;PMS7003;54295;51.224;-0.164;2022-07-18T12:18:48;8;6;
57451;PMS7003;54295;51.224;-0.164;2022-07-18T12:21:16;4;4;
57451;PMS7003;54295;51.224;-0.164;2022-07-18T12:23:43;7;7;
57451;PMS7003;54295;51.224;-0.164;2022-07-18T12:26:25;5;5;
57451;PMS7003;54295;51.224;-0.164;2022-07-18T12:29:02;6;6;
57451;PMS7003;54295;51.224;-0.164;2022-07-18T12:31:39;5;5;
57451;PMS7003;54295;51.224;-0.164;2022-07-18T12:34:10;6;6;
57451;PMS7003;54295;51.224;-0.164;2022-07-18T12:36:54;3;3;
57451;PMS7003;54295;51.224;-0.164;2022-07-18T12:39:25;7;7;
57451;PMS7003;54295;51.224;-0.164;2022-07-18T12:41:54;4;4;
57451;PMS7003;54295;51.224;-0.164;2022-07-18T12:44:21;3;3;
57451;PMS7003;54295;51.224;-0.164;2022-07-18T12:46:48;7;7;
57451;PMS7003;54295;51.224;-0.164;2022-07-18T12:49:15;4;4;
57451;PMS7003;54295;51.224;-0.164;2022-07-18T12:51:42;5;5;
57451;PMS7003;54295;51.224;-0.164;2022-07-18T12:54:10;5;5;
57451;PMS7003;54295;51.224;-0.164;2022-07-18T12:56:38;8;7;
57451;PMS7003;54295;51.224;-0.164;2022-07-18T12:59:06;4;4;
57451;PMS7003;54295;51.224;-0.164;2022-07-18T13:01:33;4;3;
57451;PMS7003;54295;51.224;-0.164;2022-07-18T13:04:01;7;5;
57451;PMS7003;54295;51.224;-0.164;2022-07-18T13:06:30;4;4;
57451;PMS7003;54295;51.224;-0.164;2022-07-18T13:08:57;4;4;
57451;PMS7003;54295;51.224;-0.164;2022-07-18T13:11:24;5;5;
57451;PMS7003;54295;51.224;-0.164;2022-07-18T13:13:53;4;4;
57451;PMS7003;54295;51.224;-0.164;2022-07-18T13:16:20;5;5;
57451;PMS7003;54295;51.224;-0.164;2022-07-18T13:18:46;6;5;
57451;PMS7003;54295;51.224;-0.164;2022-07-18T13:21:14;3;3;
57451;PMS7003;54295;51.224;-0.164;2022-07-18T13:23:42;4;4;
57451;PMS7003;54295;51.224;-0.164;2022-07-18T13:26:08;3;3;
57451;PMS7003;54295;51.224;-0.164;2022-07-18T13:28:36;5;5;
57451;PMS7003;54295;51.224;-0.164;2022-07-18T13:31:04;5;4;
57451;PMS7003;54295;51.224;-0.164;2022-07-18T13:33:44;5;5;
57451;PMS7003;54295;51.224;-0.164;2022-07-18T13:36:31;5;4;
57451;PMS7003;54295;51.224;-0.164;2022-07-18T13:38:58;4;3;
57451;PMS7003;54295;51.224;-0.164;2022-07-18T13:41:26;4;4;
57451;PMS7003;54295;51.224;-0.164;2022-07-18T13:43:53;5;5;
57451;PMS7003;54295;51.224;-0.164;2022-07-18T13:46:25;5;5;
57451;PMS7003;54295;51.224;-0.164;2022-07-18T13:48:53;4;4;
57451;PMS7003;54295;51.224;-0.164;2022-07-18T13:51:20;5;4;
57451;PMS7003;54295;51.224;-0.164;2022-07-18T13:53:47;4;4;
57451;PMS7003;54295;51.224;-0.164;2022-07-18T13:56:13;5;5;
57451;PMS7003;54295;51.224;-0.164;2022-07-18T13:58:40;4;4;
57451;PMS7003;54295;51.224;-0.164;2022-07-18T14:01:07;6;6;
57451;PMS7003;54295;51.224;-0.164;2022-07-18T14:03:35;5;4;
57451;PMS7003;54295;51.224;-0.164;2022-07-18T14:06:02;4;4;
57451;PMS7003;54295;51.224;-0.164;2022-07-18T14:08:30;5;5;
57451;PMS7003;54295;51.224;-0.164;2022-07-18T14:10:57;5;5;
57451;PMS7003;54295;51.224;-0.164;2022-07-18T14:13:24;6;6;
57451;PMS7003;54295;51.224;-0.164;2022-07-18T14:15:51;6;5;
57451;PMS7003;54295;51.224;-0.164;2022-07-18T14:18:19;4;4;
57451;PMS7003;54295;51.224;-0.164;2022-07-18T14:20:46;4;4;
57451;PMS7003;54295;51.224;-0.164;2022-07-18T14:23:13;6;6;
57451;PMS7003;54295;51.224;-0.164;2022-07-18T14:25:41;4;4;
57451;PMS7003;54295;51.224;-0.164;2022-07-18T14:28:08;5;5;
57451;PMS7003;54295;51.224;-0.164;2022-07-18T14:30:35;4;4;
57451;PMS7003;54295;51.224;-0.164;2022-07-18T14:33:03;6;6;
57451;PMS7003;54295;51.224;-0.164;2022-07-18T14:35:32;2;2;
57451;PMS7003;54295;51.224;-0.164;2022-07-18T14:37:59;4;4;
57451;PMS7003;54295;51.224;-0.164;2022-07-18T14:40:26;3;3;
57451;PMS7003;54295;51.224;-0.164;2022-07-18T14:42:52;4;4;
57451;PMS7003;54295;51.224;-0.164;2022-07-18T14:45:19;3;3;
57451;PMS7003;54295;51.224;-0.164;2022-07-18T14:47:46;6;5;
57451;PMS7003;54295;51.224;-0.164;2022-07-18T14:50:14;4;4;
57451;PMS7003;54295;51.224;-0.164;2022-07-18T14:52:42;5;5;
57451;PMS7003;54295;51.224;-0.164;2022-07-18T14:55:10;6;5;
57451;PMS7003;54295;51.224;-0.164;2022-07-18T14:57:37;2;2;
57451;PMS7003;54295;51.224;-0.164;2022-07-18T15:00:06;4;4;
57451;PMS7003;54295;51.224;-0.164;2022-07-18T15:02:34;3;3;
57451;PMS7003;54295;51.224;-0.164;2022-07-18T15:05:02;3;3;
57451;PMS7003;54295;51.224;-0.164;2022-07-18T15:07:29;4;4;
57451;PMS7003;54295;51.224;-0.164;2022-07-18T15:09:57;4;4;
57451;PMS7003;54295;51.224;-0.164;2022-07-18T15:12:29;6;5;
57451;PMS7003;54295;51.224;-0.164;2022-07-18T15:14:57;6;5;
57451;PMS7003;54295;51.224;-0.164;2022-07-18T15:17:25;5;5;
57451;PMS7003;54295;51.224;-0.164;2022-07-18T15:19:52;5;4;
57451;PMS7003;54295;51.224;-0.164;2022-07-18T15:22:20;2;2;
57451;PMS7003;54295;51.224;-0.164;2022-07-18T15:24:47;3;3;
57451;PMS7003;54295;51.224;-0.164;2022-07-18T15:27:15;4;4;
57451;PMS7003;54295;51.224;-0.164;2022-07-18T15:29:42;4;3;
57451;PMS7003;54295;51.224;-0.164;2022-07-18T15:32:09;3;3;
57451;PMS7003;54295;51.224;-0.164;2022-07-18T15:34:55;2;2;
57451;PMS7003;54295;51.224;-0.164;2022-07-18T15:37:23;3;3;
57451;PMS7003;54295;51.224;-0.164;2022-07-18T15:39:51;3;3;
57451;PMS7003;54295;51.224;-0.164;2022-07-18T15:42:19;5;4;
57451;PMS7003;54295;51.224;-0.164;2022-07-18T15:44:46;5;5;
57451;PMS7003;54295;51.224;-0.164;2022-07-18T15:47:14;3;3;
57451;PMS7003;54295;51.224;-0.164;2022-07-18T15:49:42;3;3;
57451;PMS7003;54295;51.224;-0.164;2022-07-18T15:52:09;4;4;
57451;PMS7003;54295;51.224;-0.164;2022-07-18T15:54:37;3;3;
57451;PMS7003;54295;51.224;-0.164;2022-07-18T15:57:04;4;4;
57451;PMS7003;54295;51.224;-0.164;2022-07-18T15:59:33;4;3;
57451;PMS7003;54295;51.224;-0.164;2022-07-18T16:02:01;4;4;
57451;PMS7003;54295;51.224;-0.164;2022-07-18T16:04:27;4;4;
57451;PMS7003;54295;51.224;-0.164;2022-07-18T16:07:08;2;2;
57451;PMS7003;54295;51.224;-0.164;2022-07-18T16:09:36;5;5;
57451;PMS7003;54295;51.224;-0.164;2022-07-18T16:12:10;2;2;
57451;PMS7003;54295;51.224;-0.164;2022-07-18T16:14:38;4;4;
57451;PMS7003;54295;51.224;-0.164;2022-07-18T16:17:05;3;3;
57451;PMS7003;54295;51.224;-0.164;2022-07-18T16:19:32;3;3;
57451;PMS7003;54295;51.224;-0.164;2022-07-18T16:22:00;5;5;
57451;PMS7003;54295;51.224;-0.164;2022-07-18T16:24:28;3;3;
57451;PMS7003;54295;51.224;-0.164;2022-07-18T16:26:54;2;2;
57451;PMS7003;54295;51.224;-0.164;2022-07-18T16:29:21;6;6;
57451;PMS7003;54295;51.224;-0.164;2022-07-18T16:31:49;5;5;
57451;PMS7003;54295;51.224;-0.164;2022-07-18T16:34:16;4;4;
57451;PMS7003;54295;51.224;-0.164;2022-07-18T16:36:44;4;4;
57451;PMS7003;54295;51.224;-0.164;2022-07-18T16:39:11;2;2;
57451;PMS7003;54295;51.224;-0.164;2022-07-18T16:41:39;5;5;
57451;PMS7003;54295;51.224;-0.164;2022-07-18T16:44:06;3;3;
57451;PMS7003;54295;51.224;-0.164;2022-07-18T16:46:35;2;2;